Aérodrome :







RETROUVEZ-NOUS SUR...

 
LOGIN :

S'inscrire | Disclaimer

   EN    FR    IT 

 









Légende :    VFR   VFR Marginal   IFR   IFR Intensif   IFR Très Intensif
Visi : 
Plafond : 
>= 8 km
>= 3000ft
5 à 8 km
1000 à 3000 ft
1500m à 5 km
500 à 1000 ft
800 à 1500m
200 à 500 ft
< 800m
< 200 ft
Symboles :   Orages  Brouillard  Fortes neiges  Fortes précipitations  Vent > 20 kt






- Altitude de l'aérodrome : 408 ft


KMLT - Millinocket Municipal

DERNIER METAR :
  • 020153Z AUTO 15011G18KT 10SM FEW017 BKN080 12/10 A2965 RMK AO2 RAB0055E09 SLP044 P0000 T01170100

METARs EXPIRÉS :
  • 020143Z AUTO 15008G14KT 10SM FEW014 BKN080 12/10 A2965 RMK AO2 RAB0055E09 P0000 T01170100
  • 020053Z AUTO 16007G17KT 120V190 10SM SCT013 BKN021 OVC060 12/11 A2964 RMK AO2 SLP041 T01220111
  • 020011Z AUTO VRB06G16KT 10SM BKN015 OVC060 13/11 A2963 RMK AO2 PRESRR T01280111
  • 012353Z AUTO 15006G18KT 10SM BKN012 BKN017 OVC055 13/12 A2960 RMK AO2 RAE42 SLP029 P0001 60042 T01330117 10156 20133 58001

TAF N/A
FIR KZBW / Amérique du Nord



MET'MAP, la Météo Aéronautique d'un coup d'oeil ! - Copyright ORBIFLY Décembre 2007 - Disclaimer

ORBIFLY MET'MAP TEAM :

Programmation & Développement : Alexandra Zaïnal
Sur une idée originale de : Baudouin d'Aumeries
Assistance à la programmation : Marc-Olivier Méhu
Soutien technique & logistique : Manuel Goepfert

Contact : metmap@orbifly.com




SOURCES & CREDITS :

   NOAA